Destinations Riga International Airport

Riga International Airport (EVRA / RIX)

Flights to Riga International Airport

Flight number From ETE Dispatch
SPY-2412 EGPH Edinburgh Airport 02:45

Flights from Riga International Airport

Flight number To ETE Dispatch
SPY-2413 EGPH Edinburgh Airport 02:45
About

Riga International Airport facts

Riga International Airport is located in Riga at an elevation of 11.0 meters or 36 feet.

Currently, Speedy Airlines serves 2 flights to and from Riga International Airport.

Detailed airport info

Route map

Weather

Current weather

METAR

METAR

Metar data retrieved Sunday, 21 July 2024 at 20:25 UTC

EVRA 212020Z 25001KT 9999 MIFG FEW015 16/15 Q1011 NOSIG
Wind Temperature Visibility
1 kt 16c Fog reported